Wetterdaten: Mittwoch, 16.05.2012
Datum Zeit Temperatur Luftfeuchte Regen Wind Richtung Richtung Taupunkt Windchill Windben
16.05.2012 00:00 2,9 C 93 % 0,7 l/m 1,8 km/h (1 Bft) N-NO 22 1,9 C 2,5 C 0,0 km/h (0 Bft)
16.05.2012 00:05 2,9 C 93 % 0,0 l/m 1,4 km/h (1 Bft) O-SO 112 1,9 C 2,4 C 4,0 km/h (1 Bft)
16.05.2012 00:10 2,9 C 93 % 0,0 l/m 1,3 km/h (1 Bft) S 180 1,9 C 2,4 C 0,0 km/h (0 Bft)
16.05.2012 00:15 2,7 C 93 % 0,0 l/m 1,6 km/h (1 Bft) S 180 1,7 C 2,4 C 5,8 km/h (2 Bft)
16.05.2012 00:20 2,6 C 93 % 0,7 l/m 2,4 km/h (1 Bft) O-NO 67 1,6 C 2,2 C 6,3 km/h (2 Bft)
16.05.2012 00:25 2,6 C 93 % 0,7 l/m 3,2 km/h (1 Bft) O-SO 112 1,6 C 1,8 C 6,9 km/h (2 Bft)
16.05.2012 00:30 2,1 C 93 % 0,0 l/m 4,0 km/h (1 Bft) SO 135 1,1 C 1,0 C 8,7 km/h (2 Bft)
16.05.2012 00:35 2,0 C 92 % 0,0 l/m 3,7 km/h (1 Bft) O-SO 112 0,8 C 1,0 C 3,4 km/h (1 Bft)
16.05.2012 00:40 2,1 C 93 % 0,7 l/m 3,7 km/h (1 Bft) O-SO 112 1,1 C 0,8 C 5,8 km/h (2 Bft)
16.05.2012 00:45 2,2 C 93 % 0,0 l/m 4,7 km/h (1 Bft) S 180 1,2 C 0,4 C 19,6 km/h (3 Bft)
16.05.2012 00:50 2,3 C 93 % 0,0 l/m 6,6 km/h (2 Bft) O-SO 112 1,3 C -0,4 C 5,6 km/h (1 Bft)
16.05.2012 00:55 2,3 C 93 % 0,0 l/m 8,7 km/h (2 Bft) O-SO 112 1,3 C -3,2 C 29,0 km/h (5 Bft)
16.05.2012 01:00 2,4 C 93 % 0,0 l/m 10,9 km/h (2 Bft) O-SO 112 1,4 C -5,5 C 14,5 km/h (3 Bft)
16.05.2012 01:05 2,3 C 93 % 0,0 l/m 10,8 km/h (2 Bft) O-SO 112 1,3 C -5,2 C 12,4 km/h (3 Bft)
16.05.2012 01:10 2,3 C 93 % 0,0 l/m 9,3 km/h (2 Bft) O 90 1,3 C -3,4 C 15,9 km/h (3 Bft)
16.05.2012 01:15 2,3 C 93 % 0,0 l/m 11,3 km/h (2 Bft) O-SO 112 1,3 C -5,5 C 36,7 km/h (5 Bft)
16.05.2012 01:20 2,3 C 93 % 0,0 l/m 11,9 km/h (2 Bft) S 180 1,3 C -6,2 C 19,0 km/h (3 Bft)
16.05.2012 01:25 2,3 C 93 % 0,0 l/m 10,5 km/h (2 Bft) S-SO 157 1,3 C -4,5 C 8,2 km/h (2 Bft)
16.05.2012 01:30 2,4 C 93 % 0,0 l/m 10,5 km/h (2 Bft) O-SO 112 1,4 C -4,6 C 13,5 km/h (3 Bft)
16.05.2012 01:35 2,3 C 93 % 0,0 l/m 10,0 km/h (2 Bft) SO 135 1,3 C -4,1 C 11,9 km/h (2 Bft)
16.05.2012 01:40 2,3 C 93 % 0,0 l/m 8,9 km/h (2 Bft) S-SO 157 1,3 C -2,8 C 5,8 km/h (2 Bft)
16.05.2012 01:45 2,3 C 93 % 0,0 l/m 7,7 km/h (2 Bft) SO 135 1,3 C -1,5 C 11,4 km/h (2 Bft)
16.05.2012 01:50 2,2 C 93 % 0,0 l/m 8,7 km/h (2 Bft) SO 135 1,2 C -2,6 C 9,5 km/h (2 Bft)
16.05.2012 01:55 2,2 C 93 % 0,0 l/m 9,8 km/h (2 Bft) O-SO 112 1,2 C -3,9 C 15,6 km/h (3 Bft)
16.05.2012 02:00 2,1 C 92 % 0,0 l/m 10,8 km/h (2 Bft) O-SO 112 0,9 C -5,0 C 18,0 km/h (3 Bft)
16.05.2012 02:05 2,1 C 92 % 0,0 l/m 11,3 km/h (2 Bft) SO 135 0,9 C -5,5 C 15,3 km/h (3 Bft)
16.05.2012 02:10 2,0 C 91 % 0,0 l/m 12,7 km/h (3 Bft) S-SW 202 0,7 C -7,1 C 22,9 km/h (4 Bft)
16.05.2012 02:15 2,0 C 91 % 0,0 l/m 13,7 km/h (3 Bft) S-SO 157 0,7 C -8,1 C 13,2 km/h (3 Bft)
16.05.2012 02:20 2,0 C 91 % 0,0 l/m 15,9 km/h (3 Bft) O-SO 112 0,7 C -10,1 C 24,8 km/h (4 Bft)
16.05.2012 02:25 1,9 C 91 % 0,0 l/m 15,8 km/h (3 Bft) O-SO 112 0,6 C -10,2 C 19,8 km/h (3 Bft)
16.05.2012 02:30 1,8 C 90 % 0,0 l/m 15,1 km/h (3 Bft) SO 135 0,3 C -9,6 C 23,7 km/h (4 Bft)
16.05.2012 02:35 1,8 C 90 % 0,0 l/m 15,4 km/h (3 Bft) S-SO 157 0,3 C -9,9 C 38,1 km/h (5 Bft)
16.05.2012 02:40 1,9 C 89 % 0,0 l/m 14,0 km/h (3 Bft) SO 135 0,3 C -8,6 C 8,7 km/h (2 Bft)
16.05.2012 02:45 1,9 C 89 % 0,0 l/m 12,9 km/h (3 Bft) O-SO 112 0,3 C -7,5 C 9,2 km/h (2 Bft)
16.05.2012 02:50 1,9 C 89 % 0,0 l/m 12,6 km/h (3 Bft) NO 45 0,3 C -7,2 C 11,1 km/h (2 Bft)
16.05.2012 02:55 1,9 C 89 % 0,0 l/m 11,9 km/h (2 Bft) SO 135 0,3 C -6,5 C 15,9 km/h (3 Bft)
16.05.2012 03:00 1,7 C 89 % 0,0 l/m 10,6 km/h (2 Bft) SO 135 0,1 C -5,4 C 22,9 km/h (4 Bft)
16.05.2012 03:05 1,5 C 88 % 0,0 l/m 10,9 km/h (2 Bft) SO 135 -0,3 C -5,8 C 21,9 km/h (4 Bft)
16.05.2012 03:10 1,5 C 87 % 0,0 l/m 12,4 km/h (3 Bft) SO 135 -0,4 C -7,4 C 10,1 km/h (2 Bft)
16.05.2012 03:15 1,4 C 87 % 0,0 l/m 11,9 km/h (2 Bft) O-SO 112 -0,5 C -7,0 C 10,9 km/h (2 Bft)
16.05.2012 03:20 1,3 C 87 % 0,0 l/m 10,1 km/h (2 Bft) O-SO 112 -0,6 C -5,3 C 19,2 km/h (3 Bft)
16.05.2012 03:25 1,3 C 87 % 0,0 l/m 10,6 km/h (2 Bft) O-SO 112 -0,6 C -5,8 C 12,2 km/h (2 Bft)
16.05.2012 03:30 1,4 C 87 % 0,0 l/m 10,6 km/h (2 Bft) O 90 -0,5 C -5,8 C 19,5 km/h (3 Bft)
16.05.2012 03:35 1,5 C 86 % 0,0 l/m 10,9 km/h (2 Bft) SO 135 -0,6 C -6,0 C 11,3 km/h (2 Bft)
16.05.2012 03:40 1,5 C 86 % 0,0 l/m 10,8 km/h (2 Bft) O-SO 112 -0,6 C -5,7 C 8,0 km/h (2 Bft)
16.05.2012 03:45 1,5 C 86 % 0,0 l/m 9,3 km/h (2 Bft) O-SO 112 -0,6 C -3,9 C 8,2 km/h (2 Bft)
16.05.2012 03:50 1,5 C 86 % 0,0 l/m 8,7 km/h (2 Bft) O-SO 112 -0,6 C -3,2 C 14,3 km/h (3 Bft)
16.05.2012 03:55 1,5 C 86 % 0,0 l/m 8,4 km/h (2 Bft) O 90 -0,6 C -2,9 C 15,8 km/h (3 Bft)
16.05.2012 04:00 1,5 C 86 % 0,0 l/m 8,5 km/h (2 Bft) NO 45 -0,6 C -3,0 C 13,8 km/h (3 Bft)
16.05.2012 04:05 1,4 C 86 % 0,0 l/m 8,9 km/h (2 Bft) O-SO 112 -0,7 C -3,5 C 10,3 km/h (2 Bft)
16.05.2012 04:10 1,5 C 86 % 0,0 l/m 9,0 km/h (2 Bft) O-SO 112 -0,6 C -3,7 C 14,3 km/h (3 Bft)
16.05.2012 04:15 1,5 C 86 % 0,0 l/m 8,7 km/h (2 Bft) O-SO 112 -0,6 C -3,2 C 11,9 km/h (2 Bft)
16.05.2012 04:20 1,5 C 87 % 0,0 l/m 7,1 km/h (2 Bft) N-NO 22 -0,4 C -1,1 C 2,4 km/h (1 Bft)
16.05.2012 04:25 1,5 C 87 % 0,0 l/m 6,1 km/h (2 Bft) SO 135 -0,4 C -0,2 C 8,4 km/h (2 Bft)
16.05.2012 04:30 1,4 C 87 % 0,0 l/m 5,0 km/h (1 Bft) NO 45 -0,5 C 0,0 C 7,1 km/h (2 Bft)
16.05.2012 04:35 1,4 C 87 % 0,0 l/m 5,5 km/h (1 Bft) O-NO 67 -0,5 C -0,3 C 6,3 km/h (2 Bft)
16.05.2012 04:40 1,4 C 88 % 0,0 l/m 5,8 km/h (2 Bft) O-SO 112 -0,4 C -0,5 C 9,2 km/h (2 Bft)
16.05.2012 04:45 1,3 C 88 % 0,0 l/m 5,0 km/h (1 Bft) S-SO 157 -0,5 C -0,2 C 7,4 km/h (2 Bft)
16.05.2012 04:50 1,3 C 88 % 0,0 l/m 7,1 km/h (2 Bft) O 90 -0,5 C -1,9 C 16,1 km/h (3 Bft)
16.05.2012 04:55 1,4 C 88 % 0,0 l/m 9,3 km/h (2 Bft) O-SO 112 -0,4 C -4,8 C 13,4 km/h (3 Bft)
16.05.2012 05:00 1,2 C 88 % 0,0 l/m 11,6 km/h (2 Bft) SO 135 -0,6 C -7,6 C 10,9 km/h (2 Bft)
16.05.2012 05:05 1,1 C 88 % 0,0 l/m 10,9 km/h (2 Bft) SO 135 -0,7 C -7,0 C 8,2 km/h (2 Bft)
16.05.2012 05:10 1,1 C 89 % 0,0 l/m 9,2 km/h (2 Bft) SO 135 -0,5 C -5,1 C 14,2 km/h (3 Bft)
16.05.2012 05:15 1,1 C 89 % 0,0 l/m 8,5 km/h (2 Bft) SO 135 -0,5 C -4,0 C 8,9 km/h (2 Bft)
16.05.2012 05:20 1,2 C 89 % 0,0 l/m 8,9 km/h (2 Bft) O 90 -0,4 C -4,5 C 14,3 km/h (3 Bft)
16.05.2012 05:25 1,2 C 89 % 0,0 l/m 8,7 km/h (2 Bft) S-SO 157 -0,4 C -4,2 C 11,1 km/h (2 Bft)
16.05.2012 05:30 1,2 C 89 % 0,0 l/m 9,2 km/h (2 Bft) SO 135 -0,4 C -4,8 C 6,3 km/h (2 Bft)
16.05.2012 05:35 1,3 C 89 % 0,0 l/m 8,5 km/h (2 Bft) O-SO 112 -0,3 C -3,9 C 12,9 km/h (3 Bft)
16.05.2012 05:40 1,5 C 89 % 0,0 l/m 9,5 km/h (2 Bft) S-SO 157 -0,1 C -5,0 C 16,4 km/h (3 Bft)
16.05.2012 05:45 1,5 C 89 % 0,0 l/m 12,1 km/h (2 Bft) S-SO 157 -0,1 C -7,7 C 25,4 km/h (4 Bft)
16.05.2012 05:50 1,5 C 88 % 0,0 l/m 11,7 km/h (2 Bft) SO 135 -0,3 C -7,4 C 11,6 km/h (2 Bft)
16.05.2012 05:55 1,5 C 88 % 0,0 l/m 12,4 km/h (3 Bft) SO 135 -0,3 C -8,1 C 17,1 km/h (3 Bft)
16.05.2012 06:00 1,6 C 88 % 0,0 l/m 12,7 km/h (3 Bft) O-SO 112 -0,2 C -8,3 C 15,9 km/h (3 Bft)
16.05.2012 06:05 1,6 C 88 % 0,0 l/m 12,7 km/h (3 Bft) O-SO 112 -0,2 C -8,3 C 23,5 km/h (4 Bft)
16.05.2012 06:10 1,7 C 87 % 0,0 l/m 12,1 km/h (2 Bft) O-SO 112 -0,2 C -7,5 C 10,8 km/h (2 Bft)
16.05.2012 06:15 1,7 C 87 % 0,0 l/m 12,1 km/h (2 Bft) NO 45 -0,2 C -7,4 C 10,6 km/h (2 Bft)
16.05.2012 06:20 1,7 C 87 % 0,0 l/m 10,9 km/h (2 Bft) O 90 -0,2 C -6,0 C 19,6 km/h (3 Bft)
16.05.2012 06:25 1,8 C 87 % 0,0 l/m 10,5 km/h (2 Bft) O 90 -0,1 C -5,5 C 17,5 km/h (3 Bft)
16.05.2012 06:30 1,8 C 87 % 0,0 l/m 11,1 km/h (2 Bft) O-SO 112 -0,1 C -6,3 C 18,8 km/h (3 Bft)
16.05.2012 06:35 1,9 C 86 % 0,0 l/m 11,7 km/h (2 Bft) O-SO 112 -0,2 C -6,7 C 15,8 km/h (3 Bft)
16.05.2012 06:40 1,9 C 86 % 0,0 l/m 11,9 km/h (2 Bft) O-SO 112 -0,2 C -6,8 C 11,6 km/h (2 Bft)
16.05.2012 06:45 1,9 C 86 % 0,0 l/m 10,5 km/h (2 Bft) O-SO 112 -0,2 C -5,4 C 10,3 km/h (2 Bft)
16.05.2012 06:50 2,0 C 86 % 0,0 l/m 8,2 km/h (2 Bft) O 90 -0,1 C -2,6 C 12,1 km/h (2 Bft)
16.05.2012 06:55 2,1 C 86 % 0,0 l/m 7,2 km/h (2 Bft) O-SO 112 0,0 C -1,1 C 12,1 km/h (2 Bft)
16.05.2012 07:00 2,2 C 85 % 0,0 l/m 7,9 km/h (2 Bft) O-SO 112 -0,1 C -2,0 C 6,0 km/h (2 Bft)
16.05.2012 07:05 2,3 C 85 % 0,0 l/m 8,5 km/h (2 Bft) O-SO 112 0,0 C -2,6 C 11,4 km/h (2 Bft)
16.05.2012 07:10 2,4 C 85 % 0,0 l/m 7,6 km/h (2 Bft) N-NO 22 0,1 C -1,1 C 10,8 km/h (2 Bft)
16.05.2012 07:15 2,5 C 85 % 0,0 l/m 7,9 km/h (2 Bft) O-SO 112 0,2 C -1,4 C 17,2 km/h (3 Bft)
16.05.2012 07:20 2,8 C 84 % 0,0 l/m 9,3 km/h (2 Bft) O-SO 112 0,4 C -2,9 C 10,1 km/h (2 Bft)
16.05.2012 07:25 2,7 C 84 % 0,0 l/m 10,9 km/h (2 Bft) S-SO 157 0,3 C -4,5 C 8,2 km/h (2 Bft)
16.05.2012 07:30 2,6 C 84 % 0,0 l/m 9,8 km/h (2 Bft) S-SO 157 0,2 C -3,5 C 10,9 km/h (2 Bft)
16.05.2012 07:35 2,6 C 84 % 0,0 l/m 10,3 km/h (2 Bft) O-SO 112 0,2 C -4,1 C 18,2 km/h (3 Bft)
16.05.2012 07:40 2,6 C 84 % 0,0 l/m 10,5 km/h (2 Bft) O-SO 112 0,2 C -4,5 C 19,3 km/h (3 Bft)
16.05.2012 07:45 2,7 C 85 % 0,0 l/m 9,7 km/h (2 Bft) O 90 0,4 C -3,7 C 11,7 km/h (2 Bft)
16.05.2012 07:50 2,7 C 85 % 0,0 l/m 10,5 km/h (2 Bft) S 180 0,4 C -4,8 C 14,5 km/h (3 Bft)
16.05.2012 07:55 2,9 C 85 % 0,0 l/m 10,8 km/h (2 Bft) SO 135 0,6 C -5,0 C 14,8 km/h (3 Bft)
16.05.2012 08:00 3,1 C 84 % 0,0 l/m 10,6 km/h (2 Bft) O 90 0,7 C -4,5 C 10,0 km/h (2 Bft)
16.05.2012 08:05 3,2 C 84 % 0,0 l/m 10,5 km/h (2 Bft) O 90 0,8 C -4,2 C 16,4 km/h (3 Bft)
16.05.2012 08:10 3,1 C 84 % 0,0 l/m 9,8 km/h (2 Bft) SO 135 0,7 C -3,5 C 8,0 km/h (2 Bft)
16.05.2012 08:15 3,4 C 84 % 0,0 l/m 9,5 km/h (2 Bft) SO 135 1,0 C -2,9 C 8,7 km/h (2 Bft)
16.05.2012 08:20 3,3 C 84 % 0,0 l/m 8,2 km/h (2 Bft) S-SO 157 0,9 C -1,4 C 11,4 km/h (2 Bft)
16.05.2012 08:25 3,4 C 85 % 0,0 l/m 8,0 km/h (2 Bft) W-SW 247 1,1 C -1,1 C 9,5 km/h (2 Bft)
16.05.2012 08:30 3,8 C 84 % 0,0 l/m 8,4 km/h (2 Bft) O-SO 112 1,4 C -1,3 C 11,3 km/h (2 Bft)
16.05.2012 08:35 3,7 C 82 % 0,0 l/m 10,0 km/h (2 Bft) O-SO 112 0,9 C -2,7 C 19,3 km/h (3 Bft)
16.05.2012 08:40 3,5 C 83 % 0,0 l/m 10,8 km/h (2 Bft) S-SO 157 0,9 C -3,9 C 9,2 km/h (2 Bft)
16.05.2012 08:45 3,4 C 83 % 0,0 l/m 11,9 km/h (2 Bft) O-SO 112 0,8 C -4,9 C 21,7 km/h (4 Bft)
16.05.2012 08:50 3,4 C 83 % 0,0 l/m 11,1 km/h (2 Bft) SO 135 0,8 C -4,3 C 11,6 km/h (2 Bft)
16.05.2012 08:55 3,5 C 84 % 0,0 l/m 9,8 km/h (2 Bft) S-SO 157 1,1 C -3,0 C 10,0 km/h (2 Bft)
16.05.2012 09:00 3,5 C 84 % 0,0 l/m 10,1 km/h (2 Bft) SO 135 1,1 C -3,1 C 20,1 km/h (4 Bft)
16.05.2012 09:05 3,8 C 84 % 0,0 l/m 10,8 km/h (2 Bft) S-SO 157 1,4 C -3,8 C 13,4 km/h (3 Bft)
16.05.2012 09:10 3,9 C 82 % 0,0 l/m 12,1 km/h (2 Bft) S-SO 157 1,1 C -4,7 C 17,5 km/h (3 Bft)
16.05.2012 09:15 3,8 C 84 % 0,0 l/m 10,9 km/h (2 Bft) SO 135 1,4 C -3,6 C 10,5 km/h (2 Bft)
16.05.2012 09:20 3,5 C 84 % 0,0 l/m 10,0 km/h (2 Bft) S-SO 157 1,1 C -2,8 C 8,4 km/h (2 Bft)
16.05.2012 09:25 3,0 C 84 % 0,0 l/m 10,9 km/h (2 Bft) SO 135 0,6 C -4,6 C 15,3 km/h (3 Bft)
16.05.2012 09:30 2,8 C 86 % 0,0 l/m 10,6 km/h (2 Bft) O-SO 112 0,7 C -4,7 C 18,8 km/h (3 Bft)
16.05.2012 09:35 2,5 C 86 % 0,7 l/m 10,8 km/h (2 Bft) O 90 0,4 C -5,3 C 16,7 km/h (3 Bft)
16.05.2012 09:40 2,5 C 87 % 0,0 l/m 9,7 km/h (2 Bft) SO 135 0,6 C -4,4 C 9,2 km/h (2 Bft)
16.05.2012 09:45 2,4 C 87 % 0,0 l/m 9,2 km/h (2 Bft) O-SO 112 0,5 C -3,7 C 10,3 km/h (2 Bft)
16.05.2012 09:50 2,5 C 88 % 0,0 l/m 8,7 km/h (2 Bft) O-SO 112 0,7 C -3,2 C 7,9 km/h (2 Bft)
16.05.2012 09:55 2,6 C 88 % 0,0 l/m 7,4 km/h (2 Bft) SO 135 0,8 C -1,6 C 4,7 km/h (1 Bft)
16.05.2012 10:00 2,7 C 89 % 0,0 l/m 7,1 km/h (2 Bft) SO 135 1,1 C -0,8 C 8,4 km/h (2 Bft)
16.05.2012 10:05 2,9 C 89 % 0,0 l/m 6,4 km/h (2 Bft) O-SO 112 1,3 C 0,1 C 17,2 km/h (3 Bft)
16.05.2012 10:10 3,2 C 89 % 0,0 l/m 7,6 km/h (2 Bft) O-SO 112 1,6 C -1,1 C 18,8 km/h (3 Bft)
16.05.2012 10:15 3,2 C 89 % 0,0 l/m 8,2 km/h (2 Bft) NO 45 1,6 C -1,6 C 9,2 km/h (2 Bft)
16.05.2012 10:20 3,2 C 88 % 0,7 l/m 9,2 km/h (2 Bft) S-SO 157 1,4 C -2,8 C 7,7 km/h (2 Bft)
16.05.2012 10:25 3,2 C 88 % 0,0 l/m 8,9 km/h (2 Bft) S 180 1,4 C -2,3 C 4,8 km/h (1 Bft)
16.05.2012 10:30 3,4 C 88 % 0,0 l/m 7,6 km/h (2 Bft) O-SO 112 1,6 C -0,6 C 16,7 km/h (3 Bft)
16.05.2012 10:35 3,4 C 88 % 0,0 l/m 7,6 km/h (2 Bft) SO 135 1,6 C -0,4 C 10,9 km/h (2 Bft)
16.05.2012 10:40 3,4 C 88 % 0,0 l/m 8,9 km/h (2 Bft) O-SO 112 1,6 C -2,1 C 18,0 km/h (3 Bft)
16.05.2012 10:45 3,5 C 88 % 0,0 l/m 8,9 km/h (2 Bft) O-SO 112 1,7 C -2,1 C 10,5 km/h (2 Bft)
16.05.2012 10:50 3,6 C 88 % 0,0 l/m 9,3 km/h (2 Bft) O-SO 112 1,8 C -2,1 C 21,2 km/h (4 Bft)
16.05.2012 10:55 3,7 C 88 % 0,0 l/m 8,9 km/h (2 Bft) SO 135 1,9 C -1,5 C 12,6 km/h (3 Bft)
16.05.2012 11:00 4,0 C 87 % 0,0 l/m 7,9 km/h (2 Bft) SO 135 2,0 C 0,0 C 6,9 km/h (2 Bft)
16.05.2012 11:05 4,2 C 87 % 0,0 l/m 7,2 km/h (2 Bft) O-SO 112 2,2 C 1,2 C 11,7 km/h (2 Bft)
16.05.2012 11:10 5,1 C 87 % 0,0 l/m 6,6 km/h (2 Bft) SO 135 3,1 C 2,7 C 10,5 km/h (2 Bft)
16.05.2012 11:15 5,9 C 86 % 0,0 l/m 5,8 km/h (2 Bft) O 90 3,7 C 4,2 C 15,6 km/h (3 Bft)
16.05.2012 11:20 5,0 C 84 % 0,0 l/m 6,9 km/h (2 Bft) S 180 2,5 C 3,7 C 6,6 km/h (2 Bft)
16.05.2012 11:25 4,6 C 85 % 0,0 l/m 7,9 km/h (2 Bft) O-NO 67 2,3 C 1,6 C 11,6 km/h (2 Bft)
16.05.2012 11:30 4,1 C 85 % 0,0 l/m 7,6 km/h (2 Bft) S-SO 157 1,8 C 1,0 C 6,1 km/h (2 Bft)
16.05.2012 11:35 4,2 C 86 % 0,0 l/m 6,6 km/h (2 Bft) SO 135 2,1 C 2,1 C 9,3 km/h (2 Bft)
16.05.2012 11:40 3,6 C 86 % 0,7 l/m 6,8 km/h (2 Bft) O-SO 112 1,5 C 1,4 C 11,1 km/h (2 Bft)
16.05.2012 11:45 3,3 C 86 % 0,0 l/m 7,7 km/h (2 Bft) O-SO 112 1,2 C -0,2 C 7,6 km/h (2 Bft)
16.05.2012 11:50 2,7 C 87 % 0,7 l/m 7,9 km/h (2 Bft) O-SO 112 0,8 C -1,4 C 12,2 km/h (2 Bft)
16.05.2012 11:55 2,7 C 88 % 0,0 l/m 6,3 km/h (2 Bft) O-SO 112 0,9 C 0,4 C 6,9 km/h (2 Bft)
16.05.2012 12:00 3,0 C 88 % 0,7 l/m 5,0 km/h (1 Bft) O-SO 112 1,2 C 1,0 C 8,7 km/h (2 Bft)
16.05.2012 12:05 2,8 C 89 % 0,0 l/m 4,8 km/h (1 Bft) NO 45 1,2 C 1,1 C 3,7 km/h (1 Bft)
16.05.2012 12:10 2,6 C 89 % 0,0 l/m 4,7 km/h (1 Bft) W-SW 247 1,0 C 0,9 C 7,4 km/h (2 Bft)
16.05.2012 12:15 2,3 C 89 % 0,7 l/m 4,7 km/h (1 Bft) O-SO 112 0,7 C 0,6 C 9,8 km/h (2 Bft)
16.05.2012 12:20 2,6 C 89 % 0,0 l/m 5,0 km/h (1 Bft) O 90 1,0 C 0,4 C 3,2 km/h (1 Bft)
16.05.2012 12:25 3,2 C 89 % 0,7 l/m 4,5 km/h (1 Bft) S 180 1,6 C 1,2 C 7,2 km/h (2 Bft)
16.05.2012 12:30 3,7 C 89 % 0,0 l/m 5,6 km/h (1 Bft) S-SO 157 2,1 C 1,3 C 6,3 km/h (2 Bft)
16.05.2012 12:35 3,7 C 89 % 0,0 l/m 6,3 km/h (2 Bft) SO 135 2,1 C 1,4 C 10,3 km/h (2 Bft)
16.05.2012 12:40 4,4 C 88 % 0,0 l/m 5,0 km/h (1 Bft) SO 135 2,6 C 2,3 C 6,4 km/h (2 Bft)
16.05.2012 12:45 5,0 C 88 % 0,0 l/m 4,7 km/h (1 Bft) O-SO 112 3,2 C 3,1 C 7,9 km/h (2 Bft)
16.05.2012 12:50 4,6 C 87 % 0,0 l/m 6,6 km/h (2 Bft) O-SO 112 2,6 C 2,4 C 4,8 km/h (1 Bft)
16.05.2012 12:55 4,9 C 87 % 0,0 l/m 7,1 km/h (2 Bft) SO 135 2,9 C 1,7 C 8,2 km/h (2 Bft)
16.05.2012 13:00 5,8 C 86 % 0,0 l/m 6,3 km/h (2 Bft) O-SO 112 3,6 C 3,3 C 6,0 km/h (2 Bft)
16.05.2012 13:05 7,2 C 84 % 0,0 l/m 6,6 km/h (2 Bft) O-SO 112 4,7 C 3,7 C 5,6 km/h (1 Bft)
16.05.2012 13:10 8,3 C 81 % 0,0 l/m 7,9 km/h (2 Bft) O-SO 112 5,2 C 3,3 C 6,3 km/h (2 Bft)
16.05.2012 13:15 8,7 C 79 % 0,0 l/m 7,9 km/h (2 Bft) O-SO 112 5,3 C 4,3 C 4,2 km/h (1 Bft)
16.05.2012 13:20 8,8 C 76 % 0,0 l/m 7,6 km/h (2 Bft) O-SO 112 4,8 C 5,5 C 12,1 km/h (2 Bft)
16.05.2012 13:25 8,9 C 75 % 0,0 l/m 7,9 km/h (2 Bft) SO 135 4,7 C 5,6 C 9,0 km/h (2 Bft)
16.05.2012 13:30 6,4 C 76 % 0,0 l/m 6,9 km/h (2 Bft) O 90 2,5 C 6,4 C 9,0 km/h (2 Bft)
16.05.2012 13:35 5,1 C 79 % 0,0 l/m 6,9 km/h (2 Bft) O 90 1,8 C 5,0 C 8,5 km/h (2 Bft)
16.05.2012 13:40 5,1 C 82 % 0,0 l/m 6,8 km/h (2 Bft) O-NO 67 2,3 C 3,4 C 4,7 km/h (1 Bft)
16.05.2012 13:45 5,8 C 82 % 0,0 l/m 6,0 km/h (2 Bft) S-SO 157 3,0 C 3,8 C 7,1 km/h (2 Bft)
16.05.2012 13:50 7,8 C 78 % 0,0 l/m 6,4 km/h (2 Bft) O-SO 112 4,2 C 5,6 C 14,8 km/h (3 Bft)
16.05.2012 13:55 7,9 C 76 % 0,0 l/m 8,0 km/h (2 Bft) O-SO 112 3,9 C 4,8 C 8,4 km/h (2 Bft)
16.05.2012 14:00 7,0 C 75 % 0,0 l/m 7,6 km/h (2 Bft) SO 135 2,9 C 5,9 C 9,5 km/h (2 Bft)
16.05.2012 14:05 5,7 C 79 % 0,0 l/m 6,1 km/h (2 Bft) SO 135 2,3 C 6,2 C 7,4 km/h (2 Bft)
16.05.2012 14:10 5,4 C 81 % 0,0 l/m 6,0 km/h (2 Bft) SO 135 2,4 C 4,7 C 9,2 km/h (2 Bft)
16.05.2012 14:15 6,7 C 81 % 0,7 l/m 6,6 km/h (2 Bft) O-SO 112 3,7 C 4,5 C 9,0 km/h (2 Bft)
16.05.2012 14:20 5,6 C 80 % 0,0 l/m 9,3 km/h (2 Bft) O-SO 112 2,4 C 1,2 C 16,6 km/h (3 Bft)
16.05.2012 14:25 5,3 C 81 % 0,0 l/m 9,5 km/h (2 Bft) O 90 2,3 C 0,4 C 5,3 km/h (1 Bft)
16.05.2012 14:30 5,4 C 82 % 0,0 l/m 7,9 km/h (2 Bft) SO 135 2,6 C 1,9 C 14,5 km/h (3 Bft)
16.05.2012 14:35 4,6 C 83 % 0,0 l/m 6,3 km/h (2 Bft) SO 135 2,0 C 3,3 C 6,9 km/h (2 Bft)
16.05.2012 14:40 3,8 C 84 % 0,0 l/m 7,1 km/h (2 Bft) O-SO 112 1,4 C 1,2 C 14,0 km/h (3 Bft)
16.05.2012 14:45 3,4 C 85 % 0,0 l/m 8,0 km/h (2 Bft) SO 135 1,1 C -0,5 C 13,5 km/h (3 Bft)
16.05.2012 14:50 4,0 C 85 % 0,7 l/m 7,7 km/h (2 Bft) O-SO 112 1,7 C -0,1 C 9,5 km/h (2 Bft)
16.05.2012 14:55 4,2 C 85 % 0,0 l/m 7,4 km/h (2 Bft) SO 135 1,9 C 0,5 C 10,6 km/h (2 Bft)
16.05.2012 15:00 3,8 C 86 % 0,0 l/m 8,4 km/h (2 Bft) O-SO 112 1,7 C -0,8 C 9,5 km/h (2 Bft)
16.05.2012 15:05 3,7 C 86 % 0,0 l/m 9,0 km/h (2 Bft) O-SO 112 1,6 C -1,7 C 16,7 km/h (3 Bft)
16.05.2012 15:10 4,8 C 86 % 0,0 l/m 7,6 km/h (2 Bft) SO 135 2,7 C 0,7 C 11,9 km/h (2 Bft)
16.05.2012 15:15 5,1 C 86 % 0,0 l/m 7,4 km/h (2 Bft) O-SO 112 3,0 C 1,4 C 4,8 km/h (1 Bft)
16.05.2012 15:20 5,0 C 85 % 0,0 l/m 7,9 km/h (2 Bft) O-SO 112 2,7 C 1,4 C 7,6 km/h (2 Bft)
16.05.2012 15:25 4,9 C 86 % 0,0 l/m 6,9 km/h (2 Bft) S-SO 157 2,8 C 2,3 C 5,3 km/h (1 Bft)
16.05.2012 15:30 4,8 C 85 % 0,0 l/m 6,4 km/h (2 Bft) SO 135 2,5 C 3,0 C 10,0 km/h (2 Bft)
16.05.2012 15:35 5,1 C 85 % 0,0 l/m 7,1 km/h (2 Bft) O-SO 112 2,8 C 2,2 C 8,4 km/h (2 Bft)
16.05.2012 15:40 6,1 C 82 % 0,0 l/m 9,2 km/h (2 Bft) O-SO 112 3,3 C 0,9 C 12,1 km/h (2 Bft)
16.05.2012 15:45 6,2 C 80 % 0,0 l/m 9,0 km/h (2 Bft) O-SO 112 3,0 C 2,2 C 7,7 km/h (2 Bft)
16.05.2012 15:50 5,4 C 81 % 0,0 l/m 7,9 km/h (2 Bft) SO 135 2,4 C 3,3 C 4,3 km/h (1 Bft)
16.05.2012 15:55 4,7 C 82 % 0,0 l/m 8,0 km/h (2 Bft) O 90 1,9 C 2,2 C 9,8 km/h (2 Bft)
16.05.2012 16:00 4,3 C 84 % 0,0 l/m 7,2 km/h (2 Bft) SO 135 1,8 C 1,8 C 10,6 km/h (2 Bft)
16.05.2012 16:05 4,0 C 85 % 0,0 l/m 6,6 km/h (2 Bft) SO 135 1,7 C 2,1 C 6,6 km/h (2 Bft)
16.05.2012 16:10 4,3 C 86 % 0,0 l/m 5,1 km/h (1 Bft) O 90 2,2 C 2,6 C 8,2 km/h (2 Bft)
16.05.2012 16:15 6,0 C 85 % 0,7 l/m 6,0 km/h (2 Bft) O-SO 112 3,7 C 3,4 C 11,6 km/h (2 Bft)
16.05.2012 16:20 4,9 C 85 % 0,0 l/m 9,0 km/h (2 Bft) O-SO 112 2,6 C 0,9 C 10,6 km/h (2 Bft)
16.05.2012 16:25 4,3 C 85 % 0,0 l/m 8,7 km/h (2 Bft) SO 135 2,0 C 0,4 C 8,7 km/h (2 Bft)
16.05.2012 16:30 2,9 C 86 % 0,7 l/m 7,9 km/h (2 Bft) S 180 0,8 C -0,3 C 11,1 km/h (2 Bft)
16.05.2012 16:35 2,3 C 87 % 0,7 l/m 7,7 km/h (2 Bft) W-NW 292 0,4 C -1,0 C 9,2 km/h (2 Bft)
16.05.2012 16:40 1,7 C 87 % 0,0 l/m 5,6 km/h (1 Bft) S 180 -0,2 C -0,1 C 3,7 km/h (1 Bft)
16.05.2012 16:45 1,5 C 88 % 0,0 l/m 3,4 km/h (1 Bft) N-NW 337 -0,3 C 0,7 C 1,6 km/h (1 Bft)
16.05.2012 16:50 1,4 C 88 % 0,0 l/m 1,0 km/h (0 Bft) N-NO 22 -0,4 C 0,9 C 3,4 km/h (1 Bft)
16.05.2012 16:55 1,4 C 89 % 0,0 l/m 1,3 km/h (1 Bft) NO 45 -0,2 C 0,9 C 2,7 km/h (1 Bft)
16.05.2012 17:00 2,1 C 89 % 0,7 l/m 1,3 km/h (1 Bft) N-NO 22 0,5 C 1,5 C 1,8 km/h (1 Bft)
16.05.2012 17:05 2,7 C 89 % 0,0 l/m 0,6 km/h (0 Bft) S 180 1,1 C 2,0 C 0,0 km/h (0 Bft)
16.05.2012 17:10 3,1 C 89 % 0,0 l/m 0,8 km/h (0 Bft) SO 135 1,5 C 2,6 C 4,3 km/h (1 Bft)
16.05.2012 17:15 3,2 C 89 % 0,0 l/m 1,4 km/h (1 Bft) SO 135 1,6 C 2,9 C 3,2 km/h (1 Bft)
16.05.2012 17:20 3,7 C 90 % 0,0 l/m 1,9 km/h (1 Bft) SO 135 2,2 C 3,5 C 1,8 km/h (1 Bft)
16.05.2012 17:25 4,1 C 89 % 0,0 l/m 1,3 km/h (1 Bft) O-SO 112 2,5 C 4,1 C 3,5 km/h (1 Bft)
16.05.2012 17:30 4,0 C 89 % 0,0 l/m 1,3 km/h (1 Bft) N-NW 337 2,4 C 4,4 C 0,0 km/h (0 Bft)
16.05.2012 17:35 3,7 C 90 % 0,0 l/m 1,1 km/h (1 Bft) S 180 2,2 C 4,2 C 2,1 km/h (1 Bft)
16.05.2012 17:40 3,6 C 90 % 0,0 l/m 1,0 km/h (0 Bft) S 180 2,1 C 4,1 C 1,9 km/h (1 Bft)
16.05.2012 17:45 3,6 C 90 % 0,0 l/m 1,1 km/h (1 Bft) S-SO 157 2,1 C 4,0 C 0,0 km/h (0 Bft)
16.05.2012 17:50 3,5 C 90 % 0,0 l/m 1,1 km/h (1 Bft) S-SW 202 2,0 C 3,7 C 2,7 km/h (1 Bft)
16.05.2012 17:55 3,2 C 90 % 0,0 l/m 1,0 km/h (0 Bft) S 180 1,7 C 3,4 C 0,0 km/h (0 Bft)
16.05.2012 18:00 2,5 C 91 % 0,7 l/m 1,1 km/h (1 Bft) N-NW 337 1,2 C 2,9 C 0,0 km/h (0 Bft)
16.05.2012 18:05 2,3 C 92 % 0,0 l/m 0,8 km/h (0 Bft) N-NW 337 1,1 C 2,6 C 0,0 km/h (0 Bft)
16.05.2012 18:10 2,4 C 92 % 0,0 l/m 0,6 km/h (0 Bft) O 90 1,2 C 2,4 C 0,0 km/h (0 Bft)
16.05.2012 18:15 2,6 C 92 % 0,0 l/m 1,4 km/h (1 Bft) O-SO 112 1,4 C 2,5 C 5,8 km/h (2 Bft)
16.05.2012 18:20 2,7 C 92 % 0,0 l/m 3,1 km/h (1 Bft) NO 45 1,5 C 2,2 C 0,0 km/h (0 Bft)
16.05.2012 18:25 2,7 C 92 % 0,0 l/m 3,2 km/h (1 Bft) O-SO 112 1,5 C 2,2 C 6,4 km/h (2 Bft)
16.05.2012 18:30 2,6 C 92 % 0,7 l/m 3,7 km/h (1 Bft) O-SO 112 1,4 C 1,8 C 7,7 km/h (2 Bft)
16.05.2012 18:35 2,5 C 92 % 0,0 l/m 5,3 km/h (1 Bft) SO 135 1,3 C 0,8 C 12,7 km/h (3 Bft)
16.05.2012 18:40 2,4 C 92 % 0,0 l/m 6,4 km/h (2 Bft) W-SW 247 1,2 C 0,1 C 7,6 km/h (2 Bft)
16.05.2012 18:45 2,5 C 92 % 0,0 l/m 6,1 km/h (2 Bft) SO 135 1,3 C 0,2 C 1,9 km/h (1 Bft)
16.05.2012 18:50 2,5 C 92 % 0,0 l/m 5,8 km/h (2 Bft) O-NO 67 1,3 C 0,3 C 4,2 km/h (1 Bft)
16.05.2012 18:55 2,5 C 92 % 0,0 l/m 5,0 km/h (1 Bft) O-SO 112 1,3 C 0,8 C 5,0 km/h (1 Bft)
16.05.2012 19:00 2,4 C 92 % 0,0 l/m 3,4 km/h (1 Bft) O-NO 67 1,2 C 1,6 C 10,1 km/h (2 Bft)
16.05.2012 19:05 2,5 C 93 % 0,0 l/m 3,7 km/h (1 Bft) NO 45 1,5 C 1,6 C 4,3 km/h (1 Bft)
16.05.2012 19:10 3,2 C 91 % 0,0 l/m 4,7 km/h (1 Bft) O 90 1,9 C 2,3 C 5,5 km/h (1 Bft)
16.05.2012 19:15 3,8 C 91 % 0,0 l/m 4,5 km/h (1 Bft) O-SO 112 2,5 C 4,0 C 6,1 km/h (2 Bft)
16.05.2012 19:20 4,5 C 91 % 0,0 l/m 4,8 km/h (1 Bft) SO 135 3,2 C 6,1 C 4,0 km/h (1 Bft)
16.05.2012 19:25 5,1 C 91 % 0,0 l/m 4,5 km/h (1 Bft) O 90 3,8 C 7,3 C 5,5 km/h (1 Bft)
16.05.2012 19:30 5,4 C 90 % 0,0 l/m 3,2 km/h (1 Bft) N 360 3,9 C 8,6 C 2,4 km/h (1 Bft)
16.05.2012 19:35 5,4 C 89 % 0,0 l/m 3,5 km/h (1 Bft) S 180 3,7 C 9,0 C 4,0 km/h (1 Bft)
16.05.2012 19:40 5,6 C 89 % 0,0 l/m 3,4 km/h (1 Bft) SO 135 3,9 C 9,0 C 3,1 km/h (1 Bft)
16.05.2012 19:45 5,2 C 88 % 0,0 l/m 3,4 km/h (1 Bft) SO 135 3,4 C 8,3 C 5,0 km/h (1 Bft)
16.05.2012 19:50 4,2 C 88 % 0,0 l/m 3,7 km/h (1 Bft) O 90 2,4 C 6,2 C 4,5 km/h (1 Bft)
16.05.2012 19:55 3,7 C 88 % 0,0 l/m 4,2 km/h (1 Bft) O 90 1,9 C 4,8 C 7,1 km/h (2 Bft)
16.05.2012 20:00 3,2 C 88 % 0,0 l/m 3,9 km/h (1 Bft) NO 45 1,4 C 3,7 C 1,8 km/h (1 Bft)
16.05.2012 20:05 2,9 C 89 % 0,0 l/m 3,1 km/h (1 Bft) O-NO 67 1,3 C 3,4 C 1,8 km/h (1 Bft)
16.05.2012 20:10 2,6 C 89 % 0,0 l/m 2,6 km/h (1 Bft) O-SO 112 1,0 C 3,0 C 4,5 km/h (1 Bft)
16.05.2012 20:15 2,4 C 89 % 0,0 l/m 3,1 km/h (1 Bft) S-SO 157 0,8 C 2,3 C 4,3 km/h (1 Bft)
16.05.2012 20:20 2,4 C 90 % 0,0 l/m 2,9 km/h (1 Bft) N 360 0,9 C 2,1 C 3,2 km/h (1 Bft)
16.05.2012 20:25 2,3 C 91 % 0,0 l/m 3,9 km/h (1 Bft) O-SO 112 1,0 C 1,5 C 8,5 km/h (2 Bft)
16.05.2012 20:30 2,1 C 90 % 0,0 l/m 5,8 km/h (2 Bft) O 90 0,6 C 0,6 C 13,2 km/h (3 Bft)
16.05.2012 20:35 2,1 C 90 % 0,0 l/m 5,8 km/h (2 Bft) O-SO 112 0,6 C 0,4 C 6,0 km/h (2 Bft)
16.05.2012 20:40 2,0 C 91 % 0,0 l/m 4,7 km/h (1 Bft) O 90 0,7 C 0,8 C 7,6 km/h (2 Bft)
16.05.2012 20:45 1,9 C 91 % 0,0 l/m 4,2 km/h (1 Bft) O 90 0,6 C 0,9 C 7,4 km/h (2 Bft)
16.05.2012 20:50 1,9 C 91 % 0,0 l/m 3,2 km/h (1 Bft) O 90 0,6 C 1,3 C 6,9 km/h (2 Bft)
16.05.2012 20:55 1,9 C 91 % 0,0 l/m 2,7 km/h (1 Bft) NO 45 0,6 C 1,6 C 3,4 km/h (1 Bft)
16.05.2012 21:00 1,9 C 91 % 0,0 l/m 2,4 km/h (1 Bft) SO 135 0,6 C 1,6 C 2,4 km/h (1 Bft)
16.05.2012 21:05 1,9 C 91 % 0,0 l/m 2,3 km/h (1 Bft) O 90 0,6 C 1,7 C 0,0 km/h (0 Bft)
16.05.2012 21:10 1,9 C 92 % 0,0 l/m 2,1 km/h (1 Bft) NO 45 0,7 C 1,6 C 5,3 km/h (1 Bft)
16.05.2012 21:15 2,0 C 91 % 0,0 l/m 2,1 km/h (1 Bft) O 90 0,7 C 1,7 C 4,0 km/h (1 Bft)
16.05.2012 21:20 2,1 C 91 % 0,0 l/m 2,6 km/h (1 Bft) S-SW 202 0,8 C 1,9 C 2,9 km/h (1 Bft)
16.05.2012 21:25 2,2 C 92 % 0,0 l/m 2,4 km/h (1 Bft) W-NW 292 1,0 C 2,0 C 6,4 km/h (2 Bft)
16.05.2012 21:30 2,2 C 92 % 0,0 l/m 2,3 km/h (1 Bft) W-SW 247 1,0 C 2,1 C 0,0 km/h (0 Bft)
16.05.2012 21:35 2,0 C 92 % 0,0 l/m 2,1 km/h (1 Bft) N-NO 22 0,8 C 2,1 C 2,9 km/h (1 Bft)
16.05.2012 21:40 1,9 C 92 % 0,0 l/m 2,1 km/h (1 Bft) SO 135 0,7 C 1,8 C 5,3 km/h (1 Bft)
16.05.2012 21:45 1,9 C 93 % 0,0 l/m 2,4 km/h (1 Bft) NO 45 0,9 C 1,7 C 0,0 km/h (0 Bft)
16.05.2012 21:50 2,0 C 93 % 0,0 l/m 1,4 km/h (1 Bft) N-NW 337 1,0 C 1,6 C 0,0 km/h (0 Bft)
16.05.2012 21:55 2,1 C 93 % 0,0 l/m 1,1 km/h (1 Bft) W-SW 247 1,1 C 1,6 C 4,5 km/h (1 Bft)
16.05.2012 22:00 2,1 C 93 % 0,0 l/m 2,4 km/h (1 Bft) W-NW 292 1,1 C 1,7 C 6,4 km/h (2 Bft)
16.05.2012 22:05 2,1 C 93 % 0,0 l/m 3,4 km/h (1 Bft) W-NW 292 1,1 C 1,2 C 2,3 km/h (1 Bft)
16.05.2012 22:10 2,1 C 93 % 0,0 l/m 1,9 km/h (1 Bft) O 90 1,1 C 1,7 C 0,0 km/h (0 Bft)
16.05.2012 22:15 2,2 C 93 % 0,0 l/m 1,6 km/h (1 Bft) S 180 1,2 C 1,7 C 4,0 km/h (1 Bft)
16.05.2012 22:20 2,2 C 93 % 0,0 l/m 2,3 km/h (1 Bft) SO 135 1,2 C 1,8 C 3,1 km/h (1 Bft)
16.05.2012 22:25 2,2 C 93 % 0,0 l/m 2,3 km/h (1 Bft) NO 45 1,2 C 1,8 C 2,6 km/h (1 Bft)
16.05.2012 22:30 2,1 C 93 % 0,0 l/m 1,9 km/h (1 Bft) O-SO 112 1,1 C 1,7 C 5,0 km/h (1 Bft)
16.05.2012 22:35 2,1 C 93 % 0,0 l/m 2,7 km/h (1 Bft) O-SO 112 1,1 C 1,6 C 6,1 km/h (2 Bft)
16.05.2012 22:40 2,0 C 93 % 0,0 l/m 3,4 km/h (1 Bft) W-NW 292 1,0 C 1,1 C 0,0 km/h (0 Bft)
16.05.2012 22:45 2,0 C 93 % 0,0 l/m 2,3 km/h (1 Bft) O-SO 112 1,0 C 1,6 C 0,0 km/h (0 Bft)
16.05.2012 22:50 1,9 C 94 % 0,0 l/m 1,3 km/h (1 Bft) O-SO 112 1,0 C 1,5 C 1,6 km/h (1 Bft)
16.05.2012 22:55 2,0 C 93 % 0,0 l/m 1,4 km/h (1 Bft) SO 135 1,0 C 1,5 C 2,4 km/h (1 Bft)
16.05.2012 23:00 2,0 C 93 % 0,0 l/m 0,8 km/h (0 Bft) O-SO 112 1,0 C 1,5 C 0,0 km/h (0 Bft)
16.05.2012 23:05 2,0 C 93 % 0,0 l/m 0,5 km/h (0 Bft) O-SO 112 1,0 C 1,5 C 0,0 km/h (0 Bft)
16.05.2012 23:10 2,1 C 94 % 0,0 l/m 0,5 km/h (0 Bft) O-NO 67 1,2 C 1,6 C 2,9 km/h (1 Bft)
16.05.2012 23:15 2,1 C 94 % 0,0 l/m 1,0 km/h (0 Bft) O-SO 112 1,2 C 1,6 C 6,1 km/h (2 Bft)
16.05.2012 23:20 2,0 C 94 % 0,0 l/m 2,7 km/h (1 Bft) N-NO 22 1,1 C 1,4 C 4,8 km/h (1 Bft)
16.05.2012 23:25 1,9 C 94 % 0,0 l/m 3,2 km/h (1 Bft) O 90 1,0 C 1,1 C 7,2 km/h (2 Bft)
16.05.2012 23:30 2,0 C 94 % 0,0 l/m 3,7 km/h (1 Bft) O-NO 67 1,1 C 0,9 C 3,5 km/h (1 Bft)
16.05.2012 23:35 1,9 C 94 % 0,0 l/m 3,1 km/h (1 Bft) N-NO 22 1,0 C 1,1 C 3,9 km/h (1 Bft)
16.05.2012 23:40 1,9 C 94 % 0,0 l/m 1,9 km/h (1 Bft) NO 45 1,0 C 1,5 C 0,0 km/h (0 Bft)
16.05.2012 23:45 1,9 C 94 % 0,0 l/m 2,3 km/h (1 Bft) O-SO 112 1,0 C 1,5 C 4,2 km/h (1 Bft)
16.05.2012 23:50 2,0 C 94 % 0,0 l/m 1,6 km/h (1 Bft) O-SO 112 1,1 C 1,5 C 1,6 km/h (1 Bft)
16.05.2012 23:55 2,0 C 94 % 0,0 l/m 1,0 km/h (0 Bft) SO 135 1,1 C 1,6 C 1,9 km/h (1 Bft)
_ Min-Zeit 05:15 14:00 - 23:10 - - 04:05 02:25 23:40
Minimum _ 1,1 C 75 % - 0,5 km/h (0 Bft) - - -0,7 C -10,2 C 0,0 km/h (0 Bft)
_ Max-Zeit 13:25 23:55 18:30 02:20 - - 13:15 19:40 02:35
Maximum _ 8,9 C 94 % 0,7 l/m 15,9 km/h
O-SO (3 Bft)
- - 5,3 C 9,0 C 38,1 km/h
S-SO (5 Bft)
Durchschnitt _ 3,0 C 88 % #13,1 l/m 6,8 km/h (2 Bft) O-SO - 1,2 C -0,5 C 9,2 km/h (2 Bft)